^^
Datos históricos de la estación: Murcia-Puente Tocinos
Diario Informe para Diciembre 09, 2021 Unidades:  Métrico    Ingés   Ambas
Diario Semanal Mensual Anual
  Máxima: Mínima: Promedio:
Temperatura: 19.6 °C 8.1 °C 13.3 °C
Punto de rocio: 5.8 °C 0.9 °C 2.8 °C
Humedad: 63.6% 34.1% 50%
Velocidad viento: 16.1km/h 2.3km/h 7.7km/h
Racha viento: 33.5km/h - -
Viento- - SSO
Presión: 1022.0 hPa 1017.2 hPa -
Precipitación: 0.0 mm    
 
 
Tabla de datos para Diciembre 09, 2021
Hora Temperatura Punto de rocio Presión Viento Velocidad viento Racha viento Humedad Intensidad lluvia(por hora) Nubes
00:04 12.7 °C 1 °C 1017.8 hPa SO 4.7 km/h 7.4 km/h 45% 0.0 mm
00:09 12.7 °C 1.1 °C 1017.8 hPa SO 4.4 km/h 14.8 km/h 45% 0.0 mm
00:14 12.8 °C 1.2 °C 1017.7 hPa SO 3.9 km/h 14.8 km/h 45% 0.0 mm
00:19 12.9 °C 1.2 °C 1017.7 hPa SSO 4.7 km/h 9.3 km/h 45% 0.0 mm
00:24 12.8 °C 1.2 °C 1017.7 hPa SO 6.9 km/h 8.7 km/h 45% 0.0 mm
00:29 12.8 °C 1.4 °C 1017.7 hPa SO 6 km/h 9.3 km/h 45.7% 0.0 mm
00:34 12.8 °C 1.4 °C 1017.7 hPa OSO 3.9 km/h 13 km/h 46% 0.0 mm
00:39 12.8 °C 1.4 °C 1017.8 hPa SO 4.7 km/h 10 km/h 46% 0.0 mm
00:44 12.8 °C 1.2 °C 1017.8 hPa SSO 6.9 km/h 10 km/h 45.3% 0.0 mm
00:49 12.7 °C 1.3 °C 1017.8 hPa SSO 6.8 km/h 9.5 km/h 46% 0.0 mm
00:54 12.6 °C 1.3 °C 1017.9 hPa SSO 6.4 km/h 7.6 km/h 46% 0.0 mm
00:59 12.5 °C 1.2 °C 1017.9 hPa SSO 5.9 km/h 7.4 km/h 46% 0.0 mm
01:04 12.4 °C 1.1 °C 1017.9 hPa SO 4.7 km/h 9.5 km/h 46.1% 0.0 mm
01:09 12.3 °C 1.2 °C 1018.0 hPa SO 5.2 km/h 9.5 km/h 46.5% 0.0 mm
01:14 12.3 °C 1.3 °C 1018.0 hPa OSO 6.4 km/h 5.6 km/h 47% 0.0 mm
01:19 12.3 °C 1.3 °C 1018.0 hPa OSO 5.5 km/h 5.6 km/h 47% 0.0 mm
01:24 12.2 °C 1.2 °C 1018.0 hPa OSO 2.9 km/h 4.7 km/h 47% 0.0 mm
01:29 12.2 °C 1.2 °C 1018.0 hPa OSO 2.9 km/h 5.8 km/h 47% 0.0 mm
01:34 12.2 °C 1.2 °C 1018.0 hPa OSO 2.9 km/h 5.8 km/h 47% 0.0 mm
01:39 12.1 °C 1.3 °C 1018.0 hPa Oeste 3 km/h 7.4 km/h 47.9% 0.0 mm
01:44 11.9 °C 1.2 °C 1018.0 hPa OSO 3.2 km/h 8.4 km/h 48% 0.0 mm
01:49 11.8 °C 1.3 °C 1018.0 hPa OSO 3.6 km/h 7.6 km/h 48.7% 0.0 mm
01:54 11.6 °C 1.2 °C 1018.0 hPa OSO 4.7 km/h 9.5 km/h 49.1% 0.0 mm
01:59 11.3 °C 1.2 °C 1018.0 hPa SSO 5.4 km/h 14.8 km/h 49.8% 0.0 mm
02:04 11.5 °C 1.2 °C 1018.0 hPa SO 6.9 km/h 13 km/h 49% 0.0 mm
02:09 11.7 °C 1 °C 1018.0 hPa SO 7.3 km/h 11.9 km/h 48% 0.0 mm
02:14 11.7 °C 1 °C 1018.0 hPa SSO 8.4 km/h 13 km/h 48% 0.0 mm
02:19 11.6 °C 0.9 °C 1018.0 hPa SO 8.1 km/h 11.1 km/h 48% 0.0 mm
02:24 11.5 °C 1 °C 1018.0 hPa Oeste 7.6 km/h 7.4 km/h 48.6% 0.0 mm
02:29 11.2 °C 1 °C 1018.0 hPa SO 6.9 km/h 11.1 km/h 49.5% 0.0 mm
02:34 11 °C 1 °C 1018.0 hPa SO 5 km/h 13 km/h 50% 0.0 mm
02:39 11 °C 0.9 °C 1018.2 hPa OSO 5.4 km/h 13 km/h 50% 0.0 mm
02:44 10.8 °C 1 °C 1018.2 hPa OSO 6.4 km/h 9.3 km/h 50.7% 0.0 mm
02:49 10.7 °C 1 °C 1018.2 hPa Oeste 6.3 km/h 9.5 km/h 51.4% 0.0 mm
02:54 10.4 °C 1 °C 1018.4 hPa OSO 5.8 km/h 7.6 km/h 52.1% 0.0 mm
02:59 10.3 °C 1.1 °C 1018.4 hPa Oeste 5.5 km/h 7.6 km/h 53% 0.0 mm
03:04 10.2 °C 1.1 °C 1018.4 hPa Oeste 5 km/h 7.4 km/h 53.2% 0.0 mm
03:09 9.9 °C 1.1 °C 1018.7 hPa ONO 4.5 km/h 7.4 km/h 54% 0.0 mm
03:14 9.7 °C 1.1 °C 1018.7 hPa SO 3.2 km/h 11.9 km/h 54.9% 0.0 mm
03:19 9.7 °C 1.1 °C 1018.7 hPa OSO 4 km/h 11.1 km/h 55% 0.0 mm
03:24 9.8 °C 1.2 °C 1018.8 hPa North 5.8 km/h 8.4 km/h 55% 0.0 mm
03:29 9.7 °C 1.2 °C 1018.8 hPa ENE 5.3 km/h 7.4 km/h 55.4% 0.0 mm
03:34 9.4 °C 1.2 °C 1018.8 hPa Este 3.9 km/h 10 km/h 56.5% 0.0 mm
03:39 9.2 °C 1.2 °C 1018.9 hPa ESE 4.6 km/h 13 km/h 57.5% 0.0 mm
03:44 9 °C 1.2 °C 1018.9 hPa ESE 6.4 km/h 15.6 km/h 58.1% 0.0 mm
03:49 8.7 °C 1.1 °C 1018.9 hPa ESE 7.1 km/h 14.8 km/h 59% 0.0 mm
03:54 8.8 °C 1.2 °C 1018.9 hPa SSE 8.7 km/h 14.8 km/h 59% 0.0 mm
03:59 8.8 °C 1.3 °C 1018.9 hPa SSE 9 km/h 14.8 km/h 59% 0.0 mm
04:04 8.9 °C 1.1 °C 1018.9 hPa SSE 9.5 km/h 13.7 km/h 58% 0.0 mm
04:09 9 °C 1.2 °C 1019.1 hPa SSE 9.2 km/h 13 km/h 58% 0.0 mm
04:14 9.1 °C 1.3 °C 1019.1 hPa SSE 8.7 km/h 11.1 km/h 58% 0.0 mm
04:19 9.2 °C 1.1 °C 1019.1 hPa SE 8.4 km/h 11.9 km/h 57% 0.0 mm
04:24 9.2 °C 1.1 °C 1019.1 hPa SE 7.6 km/h 11.1 km/h 57% 0.0 mm
04:29 9.3 °C 1.2 °C 1019.1 hPa SE 7.8 km/h 13 km/h 56.8% 0.0 mm
04:34 9.4 °C 1.1 °C 1019.1 hPa SE 8.4 km/h 11.1 km/h 56% 0.0 mm
04:39 9.5 °C 1.1 °C 1019.2 hPa SE 7.9 km/h 11.1 km/h 56% 0.0 mm
04:44 9.5 °C 1.1 °C 1019.2 hPa SE 6.9 km/h 13.7 km/h 56% 0.0 mm
04:49 9.6 °C 1.2 °C 1019.2 hPa Sur 7.7 km/h 14.8 km/h 56% 0.0 mm
04:54 9.7 °C 1.1 °C 1019.2 hPa Sur 9.5 km/h 13.7 km/h 55.1% 0.0 mm
04:59 9.8 °C 1.2 °C 1019.1 hPa SSO 9.2 km/h 13 km/h 55% 0.0 mm
05:04 9.8 °C 1.2 °C 1019.1 hPa SSO 8.7 km/h 13 km/h 55% 0.0 mm
05:09 9.8 °C 1.2 °C 1019.2 hPa SSO 8.4 km/h 13 km/h 55% 0.0 mm
05:14 9.8 °C 1.2 °C 1019.2 hPa Sur 7.6 km/h 11.9 km/h 55% 0.0 mm
05:19 9.8 °C 1.2 °C 1019.2 hPa SSE 7.4 km/h 9.5 km/h 55% 0.0 mm
05:24 9.8 °C 1.2 °C 1019.3 hPa SSE 6.9 km/h 9.3 km/h 55% 0.0 mm
05:29 9.8 °C 1.2 °C 1019.3 hPa SSE 6.6 km/h 9.5 km/h 55% 0.0 mm
05:34 9.7 °C 1.3 °C 1019.3 hPa Sur 5.8 km/h 11.9 km/h 55.8% 0.0 mm
05:39 9.8 °C 1.4 °C 1019.5 hPa SSO 5.6 km/h 11.1 km/h 55.8% 0.0 mm
05:44 9.9 °C 1.3 °C 1019.5 hPa SO 5 km/h 13.7 km/h 55% 0.0 mm
05:49 10 °C 1.3 °C 1019.5 hPa SSO 5.4 km/h 10 km/h 55% 0.0 mm
05:54 10.1 °C 1.4 °C 1019.5 hPa SSO 6.4 km/h 8.4 km/h 55% 0.0 mm
05:59 10.1 °C 1.4 °C 1019.5 hPa SSO 5.9 km/h 7.6 km/h 55% 0.0 mm
06:04 10.1 °C 1.4 °C 1019.5 hPa SSO 5 km/h 7.4 km/h 55% 0.0 mm
06:09 10 °C 1.4 °C 1019.7 hPa Sur 4.5 km/h 6.4 km/h 55% 0.0 mm
06:14 9.7 °C 1.2 °C 1019.7 hPa NE 3.2 km/h 7.4 km/h 55.5% 0.0 mm
06:19 9.5 °C 1.3 °C 1019.7 hPa NE 3.2 km/h 3.9 km/h 56.7% 0.0 mm
06:24 9.3 °C 1.2 °C 1019.8 hPa NE 3.2 km/h 3.7 km/h 57% 0.0 mm
06:29 9.2 °C 1.2 °C 1019.8 hPa NE 2.9 km/h 5.6 km/h 57.8% 0.0 mm
06:34 9 °C 1.3 °C 1019.8 hPa NNO 2.3 km/h 5.6 km/h 58.7% 0.0 mm
06:39 8.9 °C 1.3 °C 1019.9 hPa Oeste 2.5 km/h 5.8 km/h 59% 0.0 mm
06:44 8.8 °C 1.2 °C 1019.9 hPa Oeste 3.2 km/h 5.8 km/h 59% 0.0 mm
06:49 8.8 °C 1.2 °C 1019.9 hPa NO 3.1 km/h 4.7 km/h 59.3% 0.0 mm
06:54 8.7 °C 1.3 °C 1020.1 hPa NNE 2.9 km/h 8.7 km/h 60% 0.0 mm
06:59 8.4 °C 1.1 °C 1020.1 hPa ESE 3.5 km/h 9.3 km/h 60.3% 0.0 mm
07:04 8.2 °C 1.2 °C 1020.1 hPa ESE 4.7 km/h 6.4 km/h 61.2% 0.0 mm
07:09 8.1 °C 1.2 °C 1020.2 hPa ESE 4.4 km/h 7.4 km/h 62% 0.0 mm
07:14 8.1 °C 1.2 °C 1020.2 hPa ESE 3.9 km/h 9.3 km/h 62% 0.0 mm
07:19 8.3 °C 1.4 °C 1020.2 hPa Este 4.4 km/h 9.5 km/h 61.8% 0.0 mm
07:24 8.6 °C 1.4 °C 1020.5 hPa ESE 5.8 km/h 9.3 km/h 60.5% 0.0 mm
07:29 8.7 °C 1.4 °C 1020.5 hPa SE 5.6 km/h 7.4 km/h 60% 0.0 mm
07:34 8.8 °C 1.4 °C 1020.5 hPa SE 5 km/h 7.4 km/h 60% 0.0 mm
07:39 8.8 °C 1.4 °C 1020.8 hPa SE 4.9 km/h 8.4 km/h 60% 0.0 mm
07:44 8.7 °C 1.3 °C 1020.8 hPa SE 4.7 km/h 7.4 km/h 60% 0.0 mm
07:49 8.7 °C 1.3 °C 1020.8 hPa SE 4.3 km/h 5.6 km/h 60.1% 0.0 mm
07:54 8.7 °C 1.6 °C 1020.9 hPa SE 3.2 km/h 9.3 km/h 61% 0.0 mm
07:59 8.7 °C 1.5 °C 1020.9 hPa Sur 3.8 km/h 9.5 km/h 60.5% 0.0 mm
08:04 8.9 °C 1.5 °C 1020.9 hPa Sur 5 km/h 11.9 km/h 60% 0.0 mm
08:09 8.8 °C 1.5 °C 1021.0 hPa Sur 6.1 km/h 13.7 km/h 60% 0.0 mm
08:14 8.8 °C 1.4 °C 1021.0 hPa Sur 8.7 km/h 11.1 km/h 60% 0.0 mm
08:19 8.8 °C 1.5 °C 1021.0 hPa SSO 8.4 km/h 11.1 km/h 60% 0.0 mm
08:24 9 °C 1.4 °C 1021.3 hPa SO 7.6 km/h 11.1 km/h 59.2% 0.0 mm
08:29 9.1 °C 1.5 °C 1021.3 hPa SO 7.4 km/h 9.5 km/h 59% 0.0 mm
08:34 9.2 °C 1.5 °C 1021.3 hPa OSO 6.9 km/h 7.6 km/h 58.5% 0.0 mm
08:39 9.2 °C 1.5 °C 1021.5 hPa Oeste 6.4 km/h 8.4 km/h 58.3% 0.0 mm
08:44 9 °C 1.5 °C 1021.5 hPa ONO 4.7 km/h 8.4 km/h 59.4% 0.0 mm
08:49 8.8 °C 1.5 °C 1021.5 hPa Oeste 4.8 km/h 8.4 km/h 60.4% 0.0 mm
08:54 8.6 °C 1.6 °C 1021.8 hPa Oeste 5 km/h 8.4 km/h 61.2% 0.0 mm
08:59 8.4 °C 1.6 °C 1021.8 hPa Oeste 5.2 km/h 9.5 km/h 62.2% 0.0 mm
09:04 8.3 °C 1.7 °C 1021.8 hPa ONO 5.8 km/h 7.4 km/h 63% 0.0 mm
09:09 8.4 °C 1.9 °C 1022.0 hPa ONO 5 km/h 5.8 km/h 63.6% 0.0 mm
09:14 8.6 °C 2.1 °C 1022.0 hPa North 3.2 km/h 7.4 km/h 63.6% 0.0 mm
09:19 8.9 °C 2.1 °C 1022.0 hPa Este 3.4 km/h 7.4 km/h 62.5% 0.0 mm
09:24 9.1 °C 2.1 °C 1022.0 hPa SE 3.9 km/h 7.6 km/h 61.5% 0.0 mm
09:29 9.2 °C 2.2 °C 1022.0 hPa SSE 4.2 km/h 11.1 km/h 61.6% 0.0 mm
09:34 9.1 °C 2.3 °C 1022.0 hPa SSE 5 km/h 13 km/h 62.2% 0.0 mm
09:39 9.1 °C 2.3 °C 1022.0 hPa Sur 6.2 km/h 16.7 km/h 62.1% 0.0 mm
09:44 9.3 °C 2.2 °C 1021.8 hPa Sur 9.5 km/h 15.6 km/h 61.1% 0.0 mm
09:49 9.3 °C 2.2 °C 1021.8 hPa SSO 9.6 km/h 13.7 km/h 61% 0.0 mm
09:54 9.5 °C 2.2 °C 1021.8 hPa SSO 10 km/h 16.7 km/h 60.4% 0.0 mm
09:59 9.7 °C 2.2 °C 1021.7 hPa SSO 10.1 km/h 16.7 km/h 59.2% 0.0 mm
10:04 10 °C 2.2 °C 1021.7 hPa SSO 10.3 km/h 18.5 km/h 58.2% 0.0 mm
10:09 10.2 °C 2.1 °C 1021.7 hPa SSO 10.5 km/h 19 km/h 57.1% 0.0 mm
10:14 10.5 °C 2.1 °C 1021.5 hPa SSO 11.1 km/h 18.5 km/h 56.1% 0.0 mm
10:19 10.7 °C 2.1 °C 1021.5 hPa SSO 10.8 km/h 14.8 km/h 55.3% 0.0 mm
10:24 10.8 °C 2.1 °C 1021.7 hPa SSO 10 km/h 14.8 km/h 54.8% 0.0 mm
10:29 11 °C 2.2 °C 1021.7 hPa SSO 9.5 km/h 14.8 km/h 54.8% 0.0 mm
10:34 11.2 °C 2 °C 1021.7 hPa SSO 8.4 km/h 14.8 km/h 53.4% 0.0 mm
10:39 11.3 °C 2.1 °C 1021.7 hPa SSO 8.1 km/h 11.1 km/h 53% 0.0 mm
10:44 11.6 °C 2.3 °C 1021.7 hPa SO 7.6 km/h 7.4 km/h 52.9% 0.0 mm
10:49 11.9 °C 2.3 °C 1021.7 hPa OSO 6.2 km/h 7.4 km/h 51.6% 0.0 mm
10:54 12.2 °C 2 °C 1021.7 hPa OSO 3.2 km/h 9.3 km/h 50% 0.0 mm
10:59 12.3 °C 2.1 °C 1021.7 hPa SO 3.6 km/h 7.6 km/h 50% 0.0 mm
11:04 12.4 °C 2.2 °C 1021.7 hPa OSO 4.7 km/h 9.3 km/h 50% 0.0 mm
11:09 12.3 °C 2.2 °C 1021.7 hPa OSO 4.8 km/h 9.3 km/h 50% 0.0 mm
11:14 12.3 °C 2.3 °C 1021.6 hPa OSO 5 km/h 13 km/h 50.6% 0.0 mm
11:19 12.3 °C 2.2 °C 1021.6 hPa SO 5.7 km/h 11.1 km/h 50% 0.0 mm
11:24 12.4 °C 2.2 °C 1021.6 hPa SO 7.6 km/h 11.9 km/h 49.8% 0.0 mm
11:29 12.7 °C 2.3 °C 1021.5 hPa SSO 7.4 km/h 20.9 km/h 49% 0.0 mm
11:34 13 °C 2.3 °C 1021.5 hPa SSO 6.9 km/h 20.4 km/h 48.1% 0.0 mm
11:39 13.1 °C 2.6 °C 1021.5 hPa SSO 7.8 km/h 11.1 km/h 48.9% 0.0 mm
11:44 13.2 °C 2.7 °C 1021.1 hPa SSO 10 km/h 16.7 km/h 49% 0.0 mm
11:49 13.5 °C 3 °C 1021.1 hPa SSO 9.6 km/h 14.8 km/h 49% 0.0 mm
11:54 13.7 °C 3.1 °C 1021.1 hPa SO 8.7 km/h 11.1 km/h 48.8% 0.0 mm
11:59 14 °C 3.2 °C 1021.0 hPa SSO 7.9 km/h 13 km/h 48.2% 0.0 mm
12:04 14.2 °C 3.1 °C 1021.0 hPa SO 6.4 km/h 13 km/h 47% 0.0 mm
12:09 14.4 °C 3.2 °C 1021.0 hPa Sur 6.3 km/h 13.7 km/h 46.9% 0.0 mm
12:14 14.7 °C 2.9 °C 1020.7 hPa SSE 5.8 km/h 14.8 km/h 45.1% 0.0 mm
12:19 14.8 °C 3 °C 1020.7 hPa SSE 6.6 km/h 14.8 km/h 45% 0.0 mm
12:24 15 °C 3.1 °C 1020.7 hPa Sur 8.7 km/h 18 km/h 44.6% 0.0 mm
12:29 15.2 °C 2.8 °C 1020.2 hPa SSO 9.2 km/h 21.7 km/h 43.5% 0.0 mm
12:34 15.3 °C 2.8 °C 1020.2 hPa Sur 10.3 km/h 22.2 km/h 43% 0.0 mm
12:39 15.4 °C 2.9 °C 1020.2 hPa Sur 11.3 km/h 20.4 km/h 43% 0.0 mm
12:44 15.7 °C 3 °C 1020.1 hPa Sur 13.7 km/h 18.5 km/h 42.6% 0.0 mm
12:49 15.8 °C 2.9 °C 1020.1 hPa SSO 12.7 km/h 14.8 km/h 42% 0.0 mm
12:54 15.9 °C 2.8 °C 1020.1 hPa SSO 10.3 km/h 20.4 km/h 41.5% 0.0 mm
12:59 16.1 °C 2.9 °C 1019.6 hPa SSO 10.6 km/h 18.5 km/h 41.3% 0.0 mm
13:04 16.2 °C 3 °C 1019.6 hPa SSO 11.1 km/h 14.8 km/h 41% 0.0 mm
13:09 16.4 °C 2.8 °C 1019.6 hPa SSO 10.4 km/h 15.6 km/h 40% 0.0 mm
13:14 16.4 °C 2.8 °C 1019.5 hPa Sur 8.7 km/h 13 km/h 40% 0.0 mm
13:19 16.6 °C 3 °C 1019.5 hPa SSE 8.2 km/h 13 km/h 40% 0.0 mm
13:24 16.8 °C 3.1 °C 1019.5 hPa SE 6.9 km/h 9.3 km/h 40% 0.0 mm
13:29 17 °C 2.9 °C 1019.4 hPa OSO 6.4 km/h 20.4 km/h 39% 0.0 mm
13:34 17.2 °C 2.4 °C 1019.4 hPa OSO 5 km/h 20.4 km/h 37.2% 0.0 mm
13:39 17.4 °C 2.3 °C 1019.4 hPa SO 6.5 km/h 24.5 km/h 36.3% 0.0 mm
13:44 17.5 °C 2.2 °C 1019.0 hPa OSO 10.3 km/h 22.2 km/h 36% 0.0 mm
13:49 17.6 °C 2.3 °C 1019.0 hPa SO 11.2 km/h 22.2 km/h 36% 0.0 mm
13:54 17.7 °C 2.4 °C 1019.0 hPa OSO 13 km/h 22.5 km/h 36% 0.0 mm
13:59 17.8 °C 2.4 °C 1018.7 hPa OSO 12.8 km/h 27.8 km/h 35.5% 0.0 mm
14:04 17.9 °C 2.5 °C 1018.7 hPa OSO 12.2 km/h 29.6 km/h 35.6% 0.0 mm
14:09 18 °C 2.3 °C 1018.7 hPa SO 12.6 km/h 29.8 km/h 35% 0.0 mm
14:14 17.9 °C 2.3 °C 1018.5 hPa SO 13.7 km/h 33.3 km/h 35.2% 0.0 mm
14:19 17.9 °C 2.6 °C 1018.5 hPa SO 14.2 km/h 24.1 km/h 35.9% 0.0 mm
14:24 17.9 °C 2.6 °C 1018.5 hPa SO 15.6 km/h 27.8 km/h 36% 0.0 mm
14:29 17.9 °C 2.6 °C 1018.3 hPa OSO 15.4 km/h 27.8 km/h 36% 0.0 mm
14:34 18 °C 2.7 °C 1018.3 hPa SO 14.8 km/h 27.8 km/h 36% 0.0 mm
14:39 18.1 °C 2.8 °C 1018.3 hPa SO 14.8 km/h 33.3 km/h 36% 0.0 mm
14:44 18.2 °C 2.8 °C 1018.0 hPa SO 14.8 km/h 25.9 km/h 36% 0.0 mm
14:49 18.2 °C 2.9 °C 1018.0 hPa SO 15.2 km/h 20.9 km/h 36% 0.0 mm
14:54 18.3 °C 3 °C 1018.0 hPa SO 16.1 km/h 24.1 km/h 36% 0.0 mm
14:59 18.4 °C 3.1 °C 1017.7 hPa SO 15.1 km/h 22.2 km/h 36% 0.0 mm
15:04 18.4 °C 3.1 °C 1017.7 hPa SO 13 km/h 20.4 km/h 36% 0.0 mm
15:09 18.4 °C 3.1 °C 1017.7 hPa SO 12.7 km/h 20.9 km/h 36% 0.0 mm
15:14 18.6 °C 3.2 °C 1017.6 hPa SO 11.9 km/h 18.5 km/h 36% 0.0 mm
15:19 18.7 °C 3.3 °C 1017.6 hPa SO 11.2 km/h 23.3 km/h 36% 0.0 mm
15:24 18.9 °C 3.1 °C 1017.6 hPa SO 9.5 km/h 24.1 km/h 35.1% 0.0 mm
15:29 19.2 °C 3.3 °C 1017.4 hPa SO 10.6 km/h 25.9 km/h 35% 0.0 mm
15:34 19.3 °C 3.3 °C 1017.4 hPa SO 13 km/h 28.2 km/h 34.7% 0.0 mm
15:39 19.3 °C 3.1 °C 1017.4 hPa SO 13.9 km/h 27.8 km/h 34.1% 0.0 mm
15:44 19.4 °C 3.4 °C 1017.3 hPa SO 16.1 km/h 33.5 km/h 34.7% 0.0 mm
15:49 19.4 °C 3.4 °C 1017.3 hPa SO 15.4 km/h 26.2 km/h 34.7% 0.0 mm
15:54 19.6 °C 3.3 °C 1017.3 hPa SO 13.7 km/h 27.8 km/h 34.1% 0.0 mm
15:59 19.4 °C 3.3 °C 1017.3 hPa SO 14.4 km/h 29.6 km/h 34.4% 0.0 mm
16:04 19.4 °C 3.6 °C 1017.3 hPa SSO 16.1 km/h 22.5 km/h 35% 0.0 mm
16:09 19.4 °C 3.6 °C 1017.3 hPa SO 15.5 km/h 24.5 km/h 35% 0.0 mm
16:14 19.4 °C 3.6 °C 1017.3 hPa SO 14 km/h 25.1 km/h 35% 0.0 mm
16:19 19.4 °C 3.6 °C 1017.3 hPa SO 13.7 km/h 28.2 km/h 35% 0.0 mm
16:24 19.4 °C 3.6 °C 1017.3 hPa SO 13 km/h 24.1 km/h 35% 0.0 mm
16:29 19.3 °C 3.5 °C 1017.3 hPa SO 13.3 km/h 25.1 km/h 35% 0.0 mm
16:34 19.3 °C 3.5 °C 1017.3 hPa SO 14 km/h 25.9 km/h 35% 0.0 mm
16:39 19.3 °C 3.7 °C 1017.3 hPa SO 14.5 km/h 24.1 km/h 35.6% 0.0 mm
16:44 19.2 °C 3.8 °C 1017.2 hPa SO 15.6 km/h 24.1 km/h 36% 0.0 mm
16:49 19.2 °C 3.8 °C 1017.2 hPa SO 14.5 km/h 16.7 km/h 36% 0.0 mm
16:54 19.2 °C 3.9 °C 1017.3 hPa SO 11.9 km/h 19.8 km/h 36.2% 0.0 mm
16:59 19.3 °C 3.8 °C 1017.3 hPa SO 11.7 km/h 26.2 km/h 36% 0.0 mm
17:04 19.3 °C 3.8 °C 1017.3 hPa SO 11.1 km/h 23.7 km/h 36% 0.0 mm
17:09 19.3 °C 3.8 °C 1017.3 hPa OSO 10.9 km/h 24.1 km/h 36% 0.0 mm
17:14 19.2 °C 3.9 °C 1017.3 hPa ONO 10.3 km/h 15.6 km/h 36.4% 0.0 mm
17:19 19 °C 4.1 °C 1017.3 hPa NO 9.8 km/h 12.2 km/h 37.4% 0.0 mm
17:24 18.7 °C 4.3 °C 1017.7 hPa ONO 8.4 km/h 13.7 km/h 38.5% 0.0 mm
17:29 18.4 °C 4.3 °C 1017.7 hPa ONO 8.5 km/h 16.7 km/h 39.4% 0.0 mm
17:34 18.2 °C 4.5 °C 1017.7 hPa ONO 8.7 km/h 24.5 km/h 40.4% 0.0 mm
17:39 17.9 °C 4.6 °C 1017.8 hPa ONO 9.9 km/h 22.5 km/h 41.4% 0.0 mm
17:44 17.8 °C 4.8 °C 1017.8 hPa ONO 13 km/h 22.5 km/h 42.4% 0.0 mm
17:49 17.6 °C 4.9 °C 1017.8 hPa ONO 13.4 km/h 24.1 km/h 43% 0.0 mm
17:54 17.4 °C 5 °C 1017.9 hPa ONO 14.8 km/h 22.2 km/h 44% 0.0 mm
17:59 17.2 °C 5.2 °C 1017.9 hPa ONO 14.4 km/h 26.2 km/h 44.9% 0.0 mm
18:04 17.2 °C 5.2 °C 1017.9 hPa ONO 13.7 km/h 25.9 km/h 45.1% 0.0 mm
18:09 17.1 °C 5.4 °C 1017.9 hPa ONO 14.2 km/h 27 km/h 46% 0.0 mm
18:14 17 °C 5.3 °C 1017.9 hPa ONO 15.6 km/h 22.2 km/h 46% 0.0 mm
18:19 16.9 °C 5.4 °C 1017.9 hPa ONO 14.3 km/h 16.4 km/h 46.5% 0.0 mm
18:24 16.8 °C 5.4 °C 1018.1 hPa ONO 11.1 km/h 18.5 km/h 47% 0.0 mm
18:29 16.7 °C 5.3 °C 1018.1 hPa ONO 10.8 km/h 18.5 km/h 47% 0.0 mm
18:34 16.6 °C 5.6 °C 1018.1 hPa ONO 10 km/h 16.7 km/h 48% 0.0 mm
18:39 16.5 °C 5.5 °C 1018.3 hPa ONO 9.6 km/h 13 km/h 48% 0.0 mm
18:44 16.4 °C 5.3 °C 1018.3 hPa ONO 8.7 km/h 13 km/h 48% 0.0 mm
18:49 16.3 °C 5.5 °C 1018.3 hPa ONO 8.2 km/h 11.9 km/h 48.9% 0.0 mm
18:54 16.3 °C 5.5 °C 1018.3 hPa Oeste 6.9 km/h 11.1 km/h 49% 0.0 mm
18:59 16.2 °C 5.4 °C 1018.3 hPa Oeste 6.8 km/h 13 km/h 49% 0.0 mm
19:04 16.2 °C 5.4 °C 1018.3 hPa Oeste 6.4 km/h 16.7 km/h 49% 0.0 mm
19:09 16.2 °C 5.4 °C 1018.5 hPa ONO 7 km/h 14.8 km/h 49% 0.0 mm
19:14 16.1 °C 5.6 °C 1018.5 hPa Oeste 8.7 km/h 11.1 km/h 49.7% 0.0 mm
19:19 16 °C 5.5 °C 1018.5 hPa Oeste 8.4 km/h 11.1 km/h 50% 0.0 mm
19:24 15.8 °C 5.5 °C 1018.5 hPa Oeste 7.6 km/h 9.5 km/h 50.4% 0.0 mm
19:29 15.7 °C 5.6 °C 1018.4 hPa Oeste 6.4 km/h 5.6 km/h 51% 0.0 mm
19:34 15.7 °C 5.6 °C 1018.4 hPa SO 3.9 km/h 5.6 km/h 51% 0.0 mm
19:39 15.6 °C 5.5 °C 1018.7 hPa Sur 3.7 km/h 5.6 km/h 51% 0.0 mm
19:44 15.6 °C 5.8 °C 1018.7 hPa SE 3.2 km/h 7.4 km/h 51.9% 0.0 mm
19:49 15.5 °C 5.7 °C 1018.7 hPa ENE 3.6 km/h 7.4 km/h 52% 0.0 mm
19:54 15.4 °C 5.6 °C 1018.7 hPa ESE 4.7 km/h 7.4 km/h 52% 0.0 mm
19:59 15.2 °C 5.6 °C 1018.7 hPa ESE 4.4 km/h 5.6 km/h 52.8% 0.0 mm
20:04 15.1 °C 5.6 °C 1018.7 hPa Este 3.9 km/h 8.4 km/h 53% 0.0 mm
20:09 14.9 °C 5.7 °C 1018.8 hPa ENE 4.1 km/h 10 km/h 54% 0.0 mm
20:14 14.8 °C 5.6 °C 1018.8 hPa SE 4.7 km/h 8.4 km/h 54% 0.0 mm
20:19 14.7 °C 5.5 °C 1018.8 hPa Este 4.7 km/h 7.6 km/h 54% 0.0 mm
20:24 14.8 °C 5.6 °C 1019.0 hPa Oeste 4.7 km/h 7.4 km/h 54% 0.0 mm
20:29 14.8 °C 5.4 °C 1019.0 hPa NO 4.1 km/h 4.7 km/h 53.2% 0.0 mm
20:34 14.9 °C 5.4 °C 1019.0 hPa NNO 2.9 km/h 5.6 km/h 53% 0.0 mm
20:39 15.1 °C 5.5 °C 1019.0 hPa Oeste 3.2 km/h 7.6 km/h 53% 0.0 mm
20:44 15.1 °C 5.5 °C 1019.0 hPa OSO 3.9 km/h 10 km/h 53% 0.0 mm
20:49 14.9 °C 5.4 °C 1019.0 hPa Oeste 4.7 km/h 11.1 km/h 53.2% 0.0 mm
20:54 14.6 °C 5.5 °C 1019.0 hPa ONO 6.9 km/h 11.1 km/h 54.5% 0.0 mm
20:59 14.3 °C 5.6 °C 1018.7 hPa ONO 7.5 km/h 13 km/h 55.6% 0.0 mm
21:04 14.2 °C 5.6 °C 1018.7 hPa ONO 8.7 km/h 13 km/h 56% 0.0 mm
21:09 14.1 °C 5.6 °C 1018.7 hPa ONO 8.7 km/h 11.1 km/h 56.8% 0.0 mm
21:14 13.9 °C 5.5 °C 1018.7 hPa ONO 8.7 km/h 11.1 km/h 57% 0.0 mm
21:19 14 °C 5.6 °C 1018.7 hPa Oeste 8.4 km/h 14.8 km/h 57% 0.0 mm
21:24 13.9 °C 5.6 °C 1018.7 hPa Oeste 7.6 km/h 13 km/h 57.2% 0.0 mm
21:29 13.8 °C 5.6 °C 1018.6 hPa OSO 7.8 km/h 11.1 km/h 57.5% 0.0 mm
21:34 13.7 °C 5.6 °C 1018.6 hPa Oeste 8.4 km/h 9.5 km/h 58.2% 0.0 mm
21:39 13.5 °C 5.6 °C 1018.6 hPa Oeste 7.8 km/h 9.3 km/h 59% 0.0 mm
21:44 13.6 °C 5.7 °C 1018.6 hPa NO 6.4 km/h 7.4 km/h 59% 0.0 mm
21:49 13.6 °C 5.7 °C 1018.6 hPa NNO 5.5 km/h 3.9 km/h 59% 0.0 mm
21:54 13.5 °C 5.6 °C 1018.6 hPa OSO 3.2 km/h 7.6 km/h 59% 0.0 mm
21:59 13.4 °C 5.6 °C 1018.5 hPa SO 3.4 km/h 7.6 km/h 59% 0.0 mm
22:04 13.4 °C 5.6 °C 1018.5 hPa SO 3.9 km/h 7.6 km/h 59% 0.0 mm
22:09 13.4 °C 5.7 °C 1018.5 hPa SO 4.1 km/h 7.6 km/h 59.5% 0.0 mm
22:14 13.3 °C 5.7 °C 1018.5 hPa SO 5 km/h 8.4 km/h 60% 0.0 mm
22:19 13.3 °C 5.7 °C 1018.5 hPa SO 5 km/h 8.4 km/h 60% 0.0 mm
22:24 13.3 °C 5.7 °C 1018.6 hPa SO 5 km/h 7.4 km/h 60% 0.0 mm
22:29 13.3 °C 5.7 °C 1018.6 hPa SO 4.9 km/h 7.4 km/h 60% 0.0 mm
22:34 13.4 °C 5.8 °C 1018.6 hPa Sur 4.7 km/h 5.6 km/h 60% 0.0 mm
22:39 13.4 °C 5.8 °C 1018.6 hPa SSE 4.2 km/h 5.8 km/h 60% 0.0 mm
22:44 13.3 °C 5.7 °C 1018.4 hPa SSE 3.2 km/h 10 km/h 60% 0.0 mm
22:49 13.2 °C 5.8 °C 1018.4 hPa Sur 4.1 km/h 9.5 km/h 60.8% 0.0 mm
22:54 13.2 °C 5.8 °C 1018.4 hPa SSO 6.4 km/h 10.3 km/h 61% 0.0 mm
Murcia-Puente Tocinos, Espa?a
Compliments of Weather Underground - 3 mb

La estación de MeteoMurcia.com, publica sus datos en los siguientes proyectos:

Weather Underground PWS IMURCIAP2 Meteoclimatic www.awekas.at

W3Counter
Web Analytics